Elizabeth, IL (61028)

4:33 PM CDT on October 23, 2014 (GMT -0500)
IGRAM | Change Station
CLOSE
Current Station
Personal Weather Station
Location: Elizabeth, IL
Elevation: 885 ft
Nearby Weather Stations
Active Advisory: Dense Fog Advisory

Elev 885 ft 42.32 °N, 90.22 °W | Updated 1 minute ago

Overcast
Overcast
53.6 °F
Feels Like 53.6 °F
N
0.0
Wind Variable Wind from North
Gusts 0.0 mph

Today
High -- | Low -- °F
--% Chance of Precip.
Yesterday
High -- | Low -- °F
Precip. -- in
7:22 AM 6:06 PM
Waning Crescent, 0% visible
Pressure 30.03 in
Visibility 10.0 miles
Clouds Overcast 2600 ft
Dew Point 52 °F
Humidity 94%
Rainfall 0.05 in
Snow Depth Not available.
UV 0 out of 12
Pollen .30 out of 12
Air Quality Not available.
Flu Activity No Activity
METAR KSFY 232115Z AUTO 00000KT 10SM RA OVC026 14/09 A3003 RMK AO2 T01350091

More Conditions Fewer Conditions

Pressure 30.03 in
Visibility 10.0 miles
Clouds Overcast 2600 ft
Dew Point 52 °F
Humidity 94%
Rainfall 0.05 in
Snow Depth Not available.
UV 0 out of 12
Pollen .30 out of 12
Air Quality Not available.
Flu Activity No Activity
METAR KSFY 232115Z AUTO 00000KT 10SM RA OVC026 14/09 A3003 RMK AO2 T01350091

More Conditions Fewer Conditions

10-Day Weather Forecast

Almanac

Astronomy

Oct. 23, 2014 Rise Set
Actual Time 7:22 AM CDT 6:06 PM CDT
Civil Twilight 6:54 AM CDT 6:35 PM CDT
Nautical Twilight 6:21 AM CDT 7:07 PM CDT
Astronomical Twilight 5:49 AM CDT 7:40 PM CDT
Moon 7:02 AM CDT 6:08 PM CDT
Length of Visible Light 11h 40m
Length of Day
10h 43m
Tomorrow will be 2m 39s shorter.
Waning Crescent, 0% of the Moon is Illuminated
Today
Waning Crescent
Oct 23
New
Oct 30
First Quarter
Nov 6
Full
Nov 14
Last Quarter

Today's Extremes

State Highs State Lows

Community

WunderPhotos

Upload Photos

1,764,379 photos uploaded!

WunderBlogs® & News

Nearby

Snow Depth

Station Depth Elevation
No new snow has been reported.

Earthquake Activity

City Distance Mag. Time & Date
No recent earthquake activity has been reported nearby.
Minimum magnitude displayed is 2.5.

Coastal Water Temperatures

Place Temperature
No Stations Reporting

Nearby Weather Stations